createdAt,value
2022-10-22T00:01:52.016Z,88.97
2022-10-22T00:04:18.377Z,88.47
2022-10-22T00:06:45.065Z,88.72
2022-10-22T00:09:12.902Z,88.55
2022-10-22T00:11:39.710Z,88.88
2022-10-22T00:14:06.116Z,88.92
2022-10-22T00:16:32.539Z,89.05
2022-10-22T00:18:58.928Z,88.82
2022-10-22T00:21:28.884Z,88.90
2022-10-22T00:23:55.821Z,88.69
2022-10-22T00:26:22.901Z,88.61
2022-10-22T00:28:49.269Z,88.73
2022-10-22T00:31:15.724Z,88.60
2022-10-22T00:33:42.166Z,88.64
2022-10-22T00:36:08.902Z,88.56
2022-10-22T00:38:35.336Z,88.65
2022-10-22T00:43:33.093Z,88.98
2022-10-22T00:45:59.491Z,88.95
2022-10-22T00:48:28.278Z,88.73
2022-10-22T00:50:58.328Z,88.84
2022-10-22T00:53:28.840Z,89.02
2022-10-22T00:55:55.658Z,88.88
2022-10-22T00:58:27.734Z,88.77
2022-10-22T01:00:55.386Z,89.05
2022-10-22T01:03:22.261Z,88.87
2022-10-22T01:05:55.743Z,88.97
2022-10-22T01:08:44.052Z,88.99
2022-10-22T01:11:35.771Z,89.10
2022-10-22T01:14:21.828Z,89.71
2022-10-22T01:16:57.279Z,89.55
2022-10-22T01:19:32.893Z,89.57
2022-10-22T01:22:23.757Z,89.49
2022-10-22T01:25:09.341Z,89.48
2022-10-22T01:27:44.762Z,89.58
2022-10-22T01:30:12.878Z,89.78
2022-10-22T01:32:54.889Z,89.43
2022-10-22T01:35:31.188Z,89.39
2022-10-22T01:38:00.160Z,89.41
2022-10-22T01:40:27.156Z,89.69
2022-10-22T01:42:58.450Z,89.44
2022-10-22T01:45:25.212Z,89.64
2022-10-22T01:48:13.410Z,89.38
2022-10-22T01:50:45.909Z,89.40
2022-10-22T01:53:24.808Z,89.24
2022-10-22T01:56:10.220Z,89.19
2022-10-22T01:58:39.534Z,88.90
2022-10-22T02:01:13.526Z,89.02
2022-10-22T02:04:09.989Z,88.91
2022-10-22T02:06:37.427Z,88.80
2022-10-22T02:09:04.056Z,89.03
2022-10-22T02:11:30.486Z,88.73
2022-10-22T02:13:59.511Z,89.12
2022-10-22T02:16:30.709Z,88.97
2022-10-22T02:18:58.452Z,88.90
2022-10-22T02:21:24.971Z,88.75
2022-10-22T02:23:51.617Z,89.11
2022-10-22T02:26:38.557Z,89.16
2022-10-22T02:29:15.333Z,88.60
2022-10-22T02:31:43.710Z,88.86
2022-10-22T02:34:16.785Z,88.83
2022-10-22T02:36:46.736Z,88.60
2022-10-22T02:39:17.785Z,88.75
2022-10-22T02:41:44.280Z,88.64
2022-10-22T02:44:11.109Z,88.95
2022-10-22T02:46:39.161Z,89.14
2022-10-22T02:49:05.961Z,89.05
2022-10-22T02:51:32.353Z,89.02
2022-10-22T02:53:58.764Z,89.23
2022-10-22T02:56:25.134Z,89.13
2022-10-22T02:58:51.500Z,88.76
2022-10-22T03:01:17.901Z,89.02
2022-10-22T03:03:44.361Z,89.33
2022-10-22T03:06:10.743Z,89.79
2022-10-22T03:08:37.147Z,89.78
2022-10-22T03:11:03.990Z,89.79
2022-10-22T03:13:30.366Z,89.37
2022-10-22T03:15:56.733Z,89.21
2022-10-22T03:18:23.155Z,89.78
2022-10-22T03:20:49.567Z,89.39
2022-10-22T03:23:18.390Z,89.17
2022-10-22T03:25:45.912Z,89.29
2022-10-22T03:28:14.114Z,89.10
2022-10-22T03:30:40.508Z,89.37
2022-10-22T03:33:06.866Z,89.65
2022-10-22T03:35:36.584Z,89.70
2022-10-22T03:38:02.860Z,90.18
2022-10-22T03:40:29.305Z,90.31
2022-10-22T03:42:55.733Z,90.31
2022-10-22T03:45:22.097Z,89.86
2022-10-22T03:47:48.455Z,89.59
2022-10-22T03:50:15.046Z,90.43
2022-10-22T03:52:41.441Z,90.30
2022-10-22T03:55:09.820Z,90.33
2022-10-22T03:57:36.778Z,90.27
2022-10-22T04:00:04.639Z,90.15
2022-10-22T04:02:31.004Z,90.38
2022-10-22T04:04:57.382Z,90.20
2022-10-22T04:07:23.746Z,90.24
2022-10-22T04:09:50.118Z,90.48
2022-10-22T04:12:16.495Z,90.81
2022-10-22T04:14:42.938Z,90.84
2022-10-22T04:17:09.321Z,90.51
2022-10-22T04:19:35.788Z,90.74
2022-10-22T04:22:02.173Z,91.10
2022-10-22T04:24:30.839Z,90.78
2022-10-22T04:26:57.262Z,90.73
2022-10-22T04:29:24.402Z,91.15
2022-10-22T04:31:51.058Z,90.95
2022-10-22T04:34:17.443Z,90.93
2022-10-22T04:36:43.823Z,91.57
2022-10-22T04:39:10.176Z,91.25
2022-10-22T04:41:38.744Z,90.89
2022-10-22T04:44:06.520Z,90.92
2022-10-22T04:46:34.823Z,91.11
2022-10-22T04:49:03.277Z,91.17
2022-10-22T04:51:29.853Z,91.09
2022-10-22T04:53:56.261Z,91.05
2022-10-22T04:56:30.400Z,90.77
2022-10-22T04:59:02.331Z,90.98
2022-10-22T05:01:37.009Z,90.93
2022-10-22T05:04:08.679Z,90.92
2022-10-22T05:06:36.395Z,91.17
2022-10-22T05:09:08.644Z,91.19
2022-10-22T05:11:37.089Z,91.18
2022-10-22T05:14:05.616Z,91.19
2022-10-22T05:16:33.178Z,91.34
2022-10-22T05:19:00.510Z,91.77
2022-10-22T05:21:27.368Z,91.75
2022-10-22T05:23:54.908Z,91.30
2022-10-22T05:26:22.568Z,91.36
2022-10-22T05:28:49.836Z,91.23
2022-10-22T05:31:17.528Z,91.61
2022-10-22T05:33:44.356Z,91.70
2022-10-22T05:36:17.191Z,91.57
2022-10-22T05:38:43.601Z,91.92
2022-10-22T05:41:12.371Z,91.62
2022-10-22T05:43:38.828Z,91.70
2022-10-22T05:46:07.962Z,91.86
2022-10-22T05:48:34.612Z,91.65
2022-10-22T05:51:06.315Z,91.57
2022-10-22T05:53:33.718Z,91.57
2022-10-22T05:56:05.545Z,91.63
2022-10-22T05:58:32.373Z,91.87
2022-10-22T06:01:16.188Z,92.11
2022-10-22T06:03:43.628Z,92.06
2022-10-22T06:06:34.931Z,92.18
2022-10-22T06:09:19.585Z,92.22
2022-10-22T06:11:51.854Z,92.22
2022-10-22T06:14:19.371Z,92.44
2022-10-22T06:17:23.747Z,92.17
2022-10-22T06:19:56.063Z,92.17
2022-10-22T06:22:22.546Z,92.29
2022-10-22T06:24:48.975Z,92.22
2022-10-22T06:27:15.411Z,92.31
2022-10-22T06:29:41.845Z,92.09
2022-10-22T06:32:08.285Z,92.00
2022-10-22T06:34:34.729Z,91.93
2022-10-22T06:37:01.111Z,91.96
2022-10-22T06:39:27.663Z,91.89
2022-10-22T06:41:54.070Z,91.63
2022-10-22T06:44:20.788Z,91.68
2022-10-22T06:46:51.989Z,91.75
2022-10-22T06:49:19.318Z,91.64
2022-10-22T06:51:48.868Z,91.77
2022-10-22T06:54:15.238Z,91.97
2022-10-22T06:56:41.720Z,91.63
2022-10-22T06:59:08.085Z,91.67
2022-10-22T07:01:35.362Z,91.60
2022-10-22T07:04:02.289Z,91.48
2022-10-22T07:06:29.174Z,91.79
2022-10-22T07:08:57.319Z,91.78
2022-10-22T07:11:26.721Z,91.40
2022-10-22T07:13:57.927Z,91.10
2022-10-22T07:16:29.571Z,91.21
2022-10-22T07:18:58.948Z,90.94
2022-10-22T07:21:26.087Z,90.87
2022-10-22T07:23:52.557Z,90.20
2022-10-22T07:26:20.351Z,90.69
2022-10-22T07:28:47.129Z,90.20
2022-10-22T07:31:14.966Z,89.36
2022-10-22T07:33:41.380Z,89.40
2022-10-22T07:36:09.632Z,89.62
2022-10-22T07:38:36.036Z,89.39
2022-10-22T07:41:03.182Z,89.26
2022-10-22T07:43:29.829Z,89.10
2022-10-22T07:45:56.191Z,88.96
2022-10-22T07:48:23.365Z,88.86
2022-10-22T07:50:52.943Z,88.81
2022-10-22T07:53:21.134Z,88.57
2022-10-22T07:55:51.729Z,88.46
2022-10-22T07:58:18.681Z,88.86
2022-10-22T08:00:45.481Z,88.72
2022-10-22T08:03:12.515Z,88.48
2022-10-22T08:05:43.723Z,88.48
2022-10-22T08:08:11.138Z,88.20
2022-10-22T08:10:37.995Z,87.95
2022-10-22T08:13:04.499Z,87.65
2022-10-22T08:15:31.112Z,87.14
2022-10-22T08:17:57.487Z,87.60
2022-10-22T08:20:23.857Z,87.47
2022-10-22T08:22:50.246Z,87.14
2022-10-22T08:25:17.997Z,87.35
2022-10-22T08:27:44.804Z,86.89
2022-10-22T08:30:12.301Z,86.90
2022-10-22T08:32:38.726Z,87.03
2022-10-22T08:35:05.269Z,87.19
2022-10-22T08:37:31.646Z,86.59
2022-10-22T08:39:58.030Z,86.71
2022-10-22T08:42:42.928Z,85.57
2022-10-22T08:45:13.390Z,85.44
2022-10-22T08:47:52.954Z,84.94
2022-10-22T08:50:24.671Z,84.76
2022-10-22T08:52:54.260Z,84.23
2022-10-22T08:55:20.711Z,84.87
2022-10-22T08:57:49.930Z,84.57
2022-10-22T09:00:40.204Z,84.12
2022-10-22T09:03:36.585Z,83.85
2022-10-22T09:06:05.944Z,84.13
2022-10-22T09:08:32.487Z,84.42
2022-10-22T09:11:06.114Z,84.05
2022-10-22T09:13:32.646Z,83.74
2022-10-22T09:16:23.640Z,84.22
2022-10-22T09:19:02.197Z,84.28
2022-10-22T09:21:52.700Z,83.90
2022-10-22T09:24:39.767Z,83.72
2022-10-22T09:27:16.045Z,83.91
2022-10-22T09:29:43.945Z,83.78
2022-10-22T09:32:10.522Z,82.95
2022-10-22T09:34:37.068Z,83.26
2022-10-22T09:37:06.756Z,83.14
2022-10-22T09:39:39.079Z,83.04
2022-10-22T09:42:06.701Z,82.59
2022-10-22T09:44:34.937Z,81.90
2022-10-22T09:47:37.251Z,81.87
2022-10-22T09:50:27.951Z,81.01
2022-10-22T09:52:59.152Z,81.45
2022-10-22T09:55:26.310Z,80.67
2022-10-22T09:57:57.516Z,80.20
2022-10-22T10:00:27.632Z,80.15
2022-10-22T10:02:58.350Z,79.15
2022-10-22T10:05:27.962Z,79.58
2022-10-22T10:07:54.327Z,79.04
2022-10-22T10:10:35.415Z,78.73
2022-10-22T10:13:40.647Z,78.22
2022-10-22T10:16:13.132Z,78.88
2022-10-22T10:18:57.931Z,77.84
2022-10-22T10:21:42.709Z,78.04
2022-10-22T10:24:22.119Z,78.00
2022-10-22T10:27:23.681Z,77.78
2022-10-22T10:30:06.588Z,77.68
2022-10-22T10:32:35.838Z,78.23
2022-10-22T10:35:22.133Z,77.77
2022-10-22T10:37:54.508Z,77.69
2022-10-22T10:40:33.609Z,77.83
2022-10-22T10:43:21.545Z,77.59
2022-10-22T10:45:57.453Z,77.14
2022-10-22T10:48:31.537Z,76.58
2022-10-22T10:51:32.333Z,76.13
2022-10-22T10:54:15.478Z,76.48
2022-10-22T10:56:45.859Z,76.75
2022-10-22T10:59:30.832Z,76.34
2022-10-22T11:02:21.605Z,75.61
2022-10-22T11:05:19.643Z,75.82
2022-10-22T11:08:03.713Z,75.47
2022-10-22T11:10:35.260Z,75.90
2022-10-22T11:13:22.873Z,74.91
2022-10-22T11:16:14.864Z,74.18
2022-10-22T11:18:56.425Z,73.90
2022-10-22T11:21:40.059Z,74.30
2022-10-22T11:24:30.290Z,73.80
2022-10-22T11:27:25.576Z,74.96
2022-10-22T11:29:56.334Z,74.95
2022-10-22T11:32:23.693Z,74.62
2022-10-22T11:34:54.250Z,74.83
2022-10-22T11:37:22.436Z,73.93
2022-10-22T11:39:55.212Z,73.30
2022-10-22T11:42:30.155Z,73.05
2022-10-22T11:45:13.168Z,72.46
2022-10-22T11:47:53.380Z,71.48
2022-10-22T11:50:22.710Z,71.15
2022-10-22T11:53:12.817Z,70.21
2022-10-22T11:56:10.148Z,71.33
2022-10-22T11:58:44.835Z,70.08
2022-10-22T12:01:11.156Z,69.47
2022-10-22T12:03:44.447Z,69.08
2022-10-22T12:06:15.465Z,69.29
2022-10-22T12:08:44.339Z,68.77
2022-10-22T12:11:10.615Z,68.99
2022-10-22T12:14:01.272Z,68.68
2022-10-22T12:16:43.955Z,69.34
2022-10-22T12:19:38.426Z,69.16
2022-10-22T12:22:07.719Z,68.47
2022-10-22T12:24:40.482Z,68.90
2022-10-22T12:27:37.697Z,67.60
2022-10-22T12:30:28.426Z,68.13
2022-10-22T12:33:00.462Z,68.12
2022-10-22T12:35:29.114Z,67.73
2022-10-22T12:37:57.713Z,67.98
2022-10-22T12:40:26.396Z,66.69
2022-10-22T12:42:55.526Z,66.99
2022-10-22T12:45:23.748Z,66.35
2022-10-22T12:47:52.634Z,65.55
2022-10-22T12:50:21.470Z,65.02
2022-10-22T12:52:48.352Z,64.34
2022-10-22T12:55:20.076Z,64.07
2022-10-22T12:57:48.575Z,63.86
2022-10-22T13:00:26.552Z,63.92
2022-10-22T13:02:54.105Z,64.26
2022-10-22T13:05:23.454Z,63.97
2022-10-22T13:08:10.447Z,63.58
2022-10-22T13:10:41.484Z,63.05
2022-10-22T13:13:30.509Z,62.81
2022-10-22T13:15:56.881Z,62.93
2022-10-22T13:18:25.089Z,63.71
2022-10-22T13:20:52.634Z,63.53
2022-10-22T13:23:20.870Z,63.28
2022-10-22T13:26:17.122Z,63.18
2022-10-22T13:28:50.525Z,64.24
2022-10-22T13:31:23.956Z,63.22
2022-10-22T13:34:03.698Z,63.97
2022-10-22T13:36:34.347Z,64.92
2022-10-22T13:39:00.835Z,65.01
2022-10-22T13:41:30.964Z,64.43
2022-10-22T13:43:57.461Z,63.47
2022-10-22T13:46:25.147Z,62.38
2022-10-22T13:48:53.987Z,62.69
2022-10-22T13:51:22.862Z,61.62
2022-10-22T13:53:50.408Z,62.22
2022-10-22T13:56:18.471Z,62.49
2022-10-22T13:58:46.333Z,62.71
2022-10-22T14:01:18.671Z,63.02
2022-10-22T14:03:45.665Z,63.16
2022-10-22T14:06:14.052Z,61.64
2022-10-22T14:08:40.523Z,62.05
2022-10-22T14:11:10.111Z,61.58
2022-10-22T14:13:36.436Z,63.09
2022-10-22T14:16:05.479Z,61.73
2022-10-22T14:18:33.040Z,59.66
2022-10-22T14:21:04.720Z,58.31
2022-10-22T14:23:32.270Z,59.71
2022-10-22T14:25:59.895Z,58.33
2022-10-22T14:28:26.468Z,58.73
2022-10-22T14:30:53.968Z,60.14
2022-10-22T14:33:29.043Z,61.86
2022-10-22T14:35:59.575Z,61.17
2022-10-22T14:38:26.125Z,58.73
2022-10-22T14:40:52.511Z,57.35
2022-10-22T14:43:22.703Z,55.48
2022-10-22T14:45:49.305Z,55.70
2022-10-22T14:48:16.142Z,54.12
2022-10-22T14:50:43.992Z,53.49
2022-10-22T14:53:11.153Z,53.54
2022-10-22T14:55:37.547Z,55.28
2022-10-22T14:58:03.935Z,56.48
2022-10-22T15:00:30.445Z,57.91
2022-10-22T15:02:59.648Z,60.08
2022-10-22T15:05:28.110Z,61.16
2022-10-22T15:07:54.520Z,61.69
2022-10-22T15:10:21.021Z,62.50
2022-10-22T15:12:47.376Z,62.92
2022-10-22T15:15:13.736Z,61.70
2022-10-22T15:17:40.462Z,60.93
2022-10-22T15:20:07.371Z,60.37
2022-10-22T15:22:35.284Z,60.94
2022-10-22T15:25:04.338Z,59.71
2022-10-22T15:27:30.985Z,59.13
2022-10-22T15:29:58.995Z,59.07
2022-10-22T15:32:26.557Z,59.80
2022-10-22T15:34:54.377Z,60.27
2022-10-22T15:37:21.209Z,61.50
2022-10-22T15:39:47.682Z,63.00
2022-10-22T15:42:14.515Z,63.73
2022-10-22T15:44:41.079Z,64.96
2022-10-22T15:47:07.928Z,65.62
2022-10-22T15:49:36.748Z,65.82
2022-10-22T15:52:04.471Z,66.08
2022-10-22T15:54:31.071Z,67.18
2022-10-22T15:56:59.756Z,68.17
2022-10-22T15:59:26.144Z,68.35
2022-10-22T16:01:52.558Z,68.64
2022-10-22T16:04:19.123Z,69.72
2022-10-22T16:06:47.637Z,69.72
2022-10-22T16:09:17.111Z,70.73
2022-10-22T16:11:43.800Z,72.39
2022-10-22T16:14:15.269Z,71.28
2022-10-22T16:16:46.426Z,71.96
2022-10-22T16:19:13.977Z,72.02
2022-10-22T16:21:40.392Z,72.61
2022-10-22T16:24:08.018Z,73.04
2022-10-22T16:26:35.219Z,72.97
2022-10-22T16:29:01.891Z,73.23
2022-10-22T16:31:28.306Z,73.67
2022-10-22T16:33:55.369Z,73.97
2022-10-22T16:36:22.485Z,75.03
2022-10-22T16:38:49.052Z,75.26
2022-10-22T16:41:17.583Z,75.85
2022-10-22T16:43:46.889Z,76.01
2022-10-22T16:46:13.347Z,76.50
2022-10-22T16:48:41.988Z,77.02
2022-10-22T16:51:10.342Z,76.88
2022-10-22T16:53:36.946Z,77.31
2022-10-22T16:56:03.483Z,77.72
2022-10-22T16:58:29.918Z,77.88
2022-10-22T17:00:56.347Z,78.19
2022-10-22T17:03:24.613Z,78.20
2022-10-22T17:05:53.944Z,78.47
2022-10-22T17:08:20.334Z,78.44
2022-10-22T17:10:46.841Z,78.79
2022-10-22T17:13:13.209Z,79.13
2022-10-22T17:15:40.388Z,79.04
2022-10-22T17:18:06.781Z,79.17
2022-10-22T17:20:33.165Z,79.71
2022-10-22T17:22:59.510Z,80.03
2022-10-22T17:25:37.017Z,80.61
2022-10-22T17:28:03.415Z,80.89
2022-10-22T17:30:30.345Z,81.24
2022-10-22T17:32:56.759Z,81.03
2022-10-22T17:35:23.196Z,81.84
2022-10-22T17:37:49.588Z,81.79
2022-10-22T17:40:15.956Z,82.02
2022-10-22T17:42:42.620Z,82.02
2022-10-22T17:45:09.473Z,81.78
2022-10-22T17:47:36.298Z,82.17
2022-10-22T17:50:02.670Z,82.31
2022-10-22T17:52:29.022Z,82.09
2022-10-22T17:54:55.381Z,81.76
2022-10-22T17:57:23.037Z,81.64
2022-10-22T17:59:49.400Z,82.27
2022-10-22T18:02:17.726Z,82.14
2022-10-22T18:04:44.269Z,82.67
2022-10-22T18:07:10.773Z,82.57
2022-10-22T18:09:37.348Z,82.83
2022-10-22T18:12:03.805Z,83.08
2022-10-22T18:14:30.269Z,83.09
2022-10-22T18:16:56.687Z,83.47
2022-10-22T18:19:24.420Z,83.21
2022-10-22T18:21:50.816Z,83.10
2022-10-22T18:24:17.640Z,82.89
2022-10-22T18:26:44.313Z,83.15
2022-10-22T18:29:14.860Z,83.10
2022-10-22T18:31:41.372Z,83.40
2022-10-22T18:34:07.818Z,83.35
2022-10-22T18:36:34.292Z,83.31
2022-10-22T18:39:01.891Z,83.24
2022-10-22T18:41:30.021Z,83.33
2022-10-22T18:43:58.871Z,83.52
2022-10-22T18:46:26.292Z,83.38
2022-10-22T18:48:53.868Z,83.20
2022-10-22T18:51:20.714Z,83.77
2022-10-22T18:53:59.199Z,83.66
2022-10-22T18:56:36.696Z,83.86
2022-10-22T18:59:03.090Z,84.18
2022-10-22T19:01:29.566Z,84.41
2022-10-22T19:03:56.766Z,84.42
2022-10-22T19:06:33.325Z,84.81
2022-10-22T19:09:04.094Z,84.97
2022-10-22T19:11:30.650Z,85.00
2022-10-22T19:13:57.102Z,84.55
2022-10-22T19:16:23.959Z,84.15
2022-10-22T19:18:51.922Z,84.53
2022-10-22T19:21:18.590Z,84.54
2022-10-22T19:26:18.189Z,85.59
2022-10-22T19:28:45.267Z,85.78
2022-10-22T19:31:17.321Z,85.57
2022-10-22T19:33:43.741Z,85.81
2022-10-22T19:36:12.492Z,85.57
2022-10-22T19:38:40.944Z,85.67
2022-10-22T19:41:08.645Z,85.30
2022-10-22T19:43:35.012Z,85.46
2022-10-22T19:46:01.684Z,85.62
2022-10-22T19:48:29.669Z,86.01
2022-10-22T19:51:02.612Z,86.24
2022-10-22T19:53:30.492Z,85.88
2022-10-22T19:55:58.559Z,86.05
2022-10-22T19:58:25.367Z,86.09
2022-10-22T20:00:51.907Z,85.93
2022-10-22T20:03:19.965Z,85.49
2022-10-22T20:05:47.452Z,85.72
2022-10-22T20:08:13.989Z,85.92
2022-10-22T20:10:40.362Z,86.47
2022-10-22T20:13:06.727Z,85.99
2022-10-22T20:15:33.161Z,85.96
2022-10-22T20:17:59.906Z,86.02
2022-10-22T20:20:26.728Z,86.13
2022-10-22T20:22:54.063Z,86.11
2022-10-22T20:25:20.429Z,86.64
2022-10-22T20:27:46.795Z,86.15
2022-10-22T20:30:14.002Z,86.51
2022-10-22T20:32:40.905Z,86.78
2022-10-22T20:35:07.745Z,86.89
2022-10-22T20:37:34.379Z,86.63
2022-10-22T20:40:00.758Z,86.75
2022-10-22T20:42:27.226Z,86.84
2022-10-22T20:44:56.139Z,86.69
2022-10-22T20:47:44.700Z,86.71
2022-10-22T20:50:31.416Z,87.16
2022-10-22T20:52:58.358Z,87.25
2022-10-22T20:55:27.050Z,87.30
2022-10-22T21:10:37.401Z,87.58
2022-10-22T21:24:38.846Z,87.58
2022-10-22T21:43:05.890Z,87.59
2022-10-22T23:07:52.890Z,88.57
2022-10-22T23:16:46.657Z,88.25
2022-10-22T23:19:26.932Z,88.31
2022-10-22T23:22:25.003Z,88.37
2022-10-22T23:25:52.369Z,88.27
2022-10-22T23:32:00.525Z,88.32
2022-10-22T23:34:32.997Z,88.57
2022-10-22T23:37:05.217Z,88.26
2022-10-22T23:39:37.250Z,88.25
2022-10-22T23:42:10.637Z,88.26
2022-10-22T23:47:35.169Z,87.72
2022-10-22T23:50:37.311Z,87.68
2022-10-22T23:53:17.012Z,88.04
2022-10-22T23:55:52.827Z,87.96
2022-10-22T23:58:51.572Z,87.88
